createdAt,value
2022-12-17T00:01:18.032Z,86.30
2022-12-17T00:04:04.098Z,86.30
2022-12-17T00:06:51.512Z,86.20
2022-12-17T00:09:48.626Z,86.40
2022-12-17T00:12:36.846Z,86.10
2022-12-17T00:15:23.258Z,86.10
2022-12-17T00:18:12.243Z,86.00
2022-12-17T00:20:58.314Z,86.10
2022-12-17T00:23:45.533Z,85.90
2022-12-17T00:26:31.325Z,85.90
2022-12-17T00:29:19.290Z,86.00
2022-12-17T00:32:05.386Z,85.80
2022-12-17T00:34:51.354Z,86.00
2022-12-17T00:37:39.369Z,86.20
2022-12-17T00:40:28.297Z,86.30
2022-12-17T00:43:20.326Z,86.50
2022-12-17T00:46:08.368Z,86.60
2022-12-17T00:48:54.449Z,86.50
2022-12-17T00:51:42.307Z,86.40
2022-12-17T00:54:31.388Z,86.30
2022-12-17T00:57:25.031Z,86.20
2022-12-17T01:00:10.899Z,86.20
2022-12-17T01:02:56.936Z,86.10
2022-12-17T01:05:43.131Z,86.10
2022-12-17T01:08:29.884Z,86.10
2022-12-17T01:11:18.191Z,86.00
2022-12-17T01:14:05.602Z,86.00
2022-12-17T01:16:52.036Z,86.10
2022-12-17T01:19:38.052Z,86.10
2022-12-17T01:22:23.910Z,86.20
2022-12-17T01:25:09.918Z,86.30
2022-12-17T01:27:56.264Z,86.50
2022-12-17T01:30:43.681Z,86.60
2022-12-17T01:33:29.280Z,86.80
2022-12-17T01:36:15.373Z,86.80
2022-12-17T01:39:01.326Z,87.20
2022-12-17T01:41:49.886Z,87.20
2022-12-17T01:45:04.493Z,87.20
2022-12-17T01:47:53.546Z,87.60
2022-12-17T01:50:43.280Z,87.60
2022-12-17T01:53:35.545Z,88.10
2022-12-17T01:56:23.575Z,88.80
2022-12-17T01:59:07.900Z,87.90
2022-12-17T02:01:53.822Z,88.70
2022-12-17T02:04:41.294Z,88.30
2022-12-17T02:07:34.667Z,87.80
2022-12-17T02:10:25.006Z,88.20
2022-12-17T02:13:11.539Z,87.90
2022-12-17T02:15:59.631Z,87.60
2022-12-17T02:18:47.561Z,87.40
2022-12-17T02:21:34.796Z,86.80
2022-12-17T02:24:24.191Z,86.50
2022-12-17T02:27:15.513Z,86.50
2022-12-17T02:30:03.509Z,86.50
2022-12-17T02:32:49.554Z,86.80
2022-12-17T02:35:36.653Z,86.80
2022-12-17T02:38:35.624Z,86.90
2022-12-17T02:41:22.200Z,87.30
2022-12-17T02:44:11.968Z,87.10
2022-12-17T02:47:00.376Z,87.00
2022-12-17T02:49:46.404Z,86.80
2022-12-17T02:52:35.051Z,86.90
2022-12-17T02:55:21.348Z,86.90
2022-12-17T02:58:21.870Z,86.70
2022-12-17T03:01:09.289Z,86.60
2022-12-17T03:03:55.668Z,86.80
2022-12-17T03:06:41.664Z,86.40
2022-12-17T03:09:27.676Z,86.20
2022-12-17T03:12:13.635Z,86.60
2022-12-17T03:14:58.784Z,86.50
2022-12-17T03:17:46.865Z,86.40
2022-12-17T03:20:32.847Z,86.00
2022-12-17T03:23:21.737Z,85.90
2022-12-17T03:26:07.786Z,86.00
2022-12-17T03:28:53.617Z,86.00
2022-12-17T03:31:39.566Z,86.00
2022-12-17T03:34:28.454Z,85.90
2022-12-17T03:37:14.491Z,85.90
2022-12-17T03:40:00.719Z,86.80
2022-12-17T03:42:46.676Z,86.10
2022-12-17T03:45:32.517Z,86.90
2022-12-17T03:48:24.968Z,86.20
2022-12-17T03:51:12.322Z,86.00
2022-12-17T03:53:58.419Z,86.20
2022-12-17T03:56:44.362Z,85.90
2022-12-17T03:59:30.291Z,85.90
2022-12-17T04:02:16.643Z,85.90
2022-12-17T04:05:05.864Z,85.90
2022-12-17T04:07:53.220Z,86.00
2022-12-17T04:10:39.151Z,85.80
2022-12-17T04:13:34.636Z,85.90
2022-12-17T04:16:23.754Z,85.80
2022-12-17T04:19:09.754Z,85.80
2022-12-17T04:21:55.645Z,85.90
2022-12-17T04:24:42.965Z,85.90
2022-12-17T04:27:28.840Z,86.10
2022-12-17T04:30:14.711Z,86.20
2022-12-17T04:33:00.790Z,86.10
2022-12-17T04:35:46.653Z,86.10
2022-12-17T04:38:32.604Z,87.30
2022-12-17T04:41:22.340Z,87.20
2022-12-17T04:44:08.285Z,86.30
2022-12-17T04:46:54.379Z,87.00
2022-12-17T04:49:40.546Z,87.10
2022-12-17T04:52:26.385Z,86.90
2022-12-17T04:55:14.895Z,86.60
2022-12-17T04:58:02.013Z,86.20
2022-12-17T05:00:47.971Z,85.90
2022-12-17T05:03:34.961Z,86.00
2022-12-17T05:06:21.373Z,86.20
2022-12-17T05:09:07.304Z,86.50
2022-12-17T05:11:53.331Z,86.10
2022-12-17T05:14:51.169Z,86.10
2022-12-17T05:17:36.937Z,86.10
2022-12-17T05:20:23.725Z,86.00
2022-12-17T05:23:09.488Z,86.30
2022-12-17T05:25:55.444Z,86.20
2022-12-17T05:28:41.480Z,86.50
2022-12-17T05:31:28.806Z,86.50
2022-12-17T05:34:14.841Z,86.40
2022-12-17T05:37:00.820Z,86.40
2022-12-17T05:39:46.742Z,86.60
2022-12-17T05:42:32.807Z,86.20
2022-12-17T05:45:18.737Z,86.30
2022-12-17T05:48:06.076Z,86.20
2022-12-17T05:50:51.206Z,86.10
2022-12-17T05:53:37.391Z,86.10
2022-12-17T05:56:24.021Z,86.10
2022-12-17T05:59:09.958Z,86.20
2022-12-17T06:01:55.854Z,86.10
2022-12-17T06:04:43.109Z,86.20
2022-12-17T06:07:29.132Z,86.30
2022-12-17T06:10:16.322Z,86.30
2022-12-17T06:13:02.292Z,86.50
2022-12-17T06:16:05.950Z,86.60
2022-12-17T06:18:54.021Z,86.90
2022-12-17T06:21:49.700Z,87.10
2022-12-17T06:24:35.726Z,87.20
2022-12-17T06:27:21.891Z,87.00
2022-12-17T06:30:07.857Z,87.50
2022-12-17T06:32:56.169Z,87.50
2022-12-17T06:35:42.164Z,87.50
2022-12-17T06:38:29.659Z,87.60
2022-12-17T06:41:18.148Z,88.00
2022-12-17T06:44:04.121Z,87.80
2022-12-17T06:46:50.217Z,87.90
2022-12-17T06:49:35.995Z,87.80
2022-12-17T06:52:22.087Z,88.10
2022-12-17T06:55:09.337Z,88.10
2022-12-17T06:57:55.096Z,88.70
2022-12-17T07:00:43.173Z,88.70
2022-12-17T07:03:29.310Z,88.70
2022-12-17T07:06:15.338Z,88.70
2022-12-17T07:09:01.429Z,89.10
2022-12-17T07:11:48.770Z,88.90
2022-12-17T07:14:36.785Z,89.10
2022-12-17T07:17:28.029Z,89.10
2022-12-17T07:20:13.996Z,89.40
2022-12-17T07:23:00.033Z,89.20
2022-12-17T07:25:46.506Z,89.20
2022-12-17T07:28:33.849Z,89.30
2022-12-17T07:31:20.080Z,89.30
2022-12-17T07:34:13.663Z,89.60
2022-12-17T07:36:59.433Z,89.50
2022-12-17T07:39:45.316Z,89.60
2022-12-17T07:42:31.199Z,88.70
2022-12-17T07:45:20.137Z,88.10
2022-12-17T07:48:10.500Z,88.60
2022-12-17T07:50:56.598Z,87.50
2022-12-17T07:53:42.557Z,87.40
2022-12-17T07:56:28.605Z,87.00
2022-12-17T07:59:14.362Z,86.60
2022-12-17T08:02:01.825Z,86.70
2022-12-17T08:04:48.041Z,86.20
2022-12-17T08:07:45.416Z,86.30
2022-12-17T08:10:31.420Z,85.90
2022-12-17T08:13:18.558Z,86.20
2022-12-17T08:16:04.412Z,86.90
2022-12-17T08:18:51.720Z,86.50
2022-12-17T08:21:46.152Z,86.10
2022-12-17T08:24:32.024Z,86.20
2022-12-17T08:27:17.936Z,86.20
2022-12-17T08:30:15.368Z,86.60
2022-12-17T08:33:01.030Z,86.30
2022-12-17T08:35:48.422Z,86.90
2022-12-17T08:38:34.497Z,85.70
2022-12-17T08:41:20.529Z,85.60
2022-12-17T08:44:13.305Z,86.40
2022-12-17T08:46:59.200Z,86.50
2022-12-17T08:49:45.196Z,87.10
2022-12-17T08:52:32.467Z,88.40
2022-12-17T08:55:18.391Z,87.80
2022-12-17T08:58:11.615Z,87.70
2022-12-17T09:00:57.793Z,88.00
2022-12-17T09:03:43.666Z,87.80
2022-12-17T09:06:31.467Z,87.80
2022-12-17T09:09:24.872Z,88.00
2022-12-17T09:12:10.868Z,87.30
2022-12-17T09:14:59.344Z,87.40
2022-12-17T09:17:45.284Z,87.70
2022-12-17T09:20:31.172Z,87.50
2022-12-17T09:23:17.068Z,87.10
2022-12-17T09:26:11.471Z,86.80
2022-12-17T09:28:57.525Z,87.40
2022-12-17T09:31:43.570Z,87.10
2022-12-17T09:34:29.544Z,87.00
2022-12-17T09:37:15.453Z,86.80
2022-12-17T09:40:01.470Z,86.60
2022-12-17T09:42:54.443Z,87.00
2022-12-17T09:45:46.702Z,86.90
2022-12-17T09:48:34.609Z,87.00
2022-12-17T09:51:20.649Z,87.00
2022-12-17T09:54:15.411Z,87.00
2022-12-17T09:57:12.895Z,87.00
2022-12-17T10:00:03.088Z,87.10
2022-12-17T10:02:49.054Z,87.00
2022-12-17T10:05:38.271Z,86.90
2022-12-17T10:08:24.772Z,87.30
2022-12-17T10:11:10.713Z,87.20
2022-12-17T10:13:56.912Z,87.20
2022-12-17T10:16:56.053Z,87.10
2022-12-17T10:19:44.188Z,87.40
2022-12-17T10:22:31.181Z,87.40
2022-12-17T10:25:22.133Z,87.20
2022-12-17T10:28:08.032Z,87.90
2022-12-17T10:30:54.252Z,87.10
2022-12-17T10:33:41.787Z,87.30
2022-12-17T10:36:38.905Z,87.10
2022-12-17T10:39:24.060Z,87.50
2022-12-17T10:42:09.868Z,87.40
2022-12-17T10:44:56.931Z,87.40
2022-12-17T10:47:57.832Z,88.10
2022-12-17T10:50:45.104Z,87.70
2022-12-17T10:53:35.759Z,87.20
2022-12-17T10:56:23.515Z,86.70
2022-12-17T10:59:10.487Z,86.90
2022-12-17T11:01:58.341Z,88.00
2022-12-17T11:04:45.317Z,86.90
2022-12-17T11:07:34.268Z,86.30
2022-12-17T11:10:20.743Z,86.00
2022-12-17T11:13:12.659Z,86.40
2022-12-17T11:16:00.060Z,86.50
2022-12-17T11:18:49.959Z,87.40
2022-12-17T11:21:38.641Z,87.20
2022-12-17T11:24:28.986Z,87.30
2022-12-17T11:27:14.833Z,87.40
2022-12-17T11:30:00.682Z,86.20
2022-12-17T11:33:00.951Z,87.10
2022-12-17T11:36:01.301Z,87.40
2022-12-17T11:38:51.761Z,87.60
2022-12-17T11:41:46.842Z,86.80
2022-12-17T11:44:37.221Z,86.90
2022-12-17T11:47:28.376Z,87.20
2022-12-17T11:50:17.074Z,87.20
2022-12-17T11:53:06.826Z,87.10
2022-12-17T11:55:56.880Z,87.30
2022-12-17T11:58:50.340Z,87.30
2022-12-17T12:01:38.902Z,87.50
2022-12-17T12:04:33.037Z,87.50
2022-12-17T12:07:22.655Z,89.50
2022-12-17T12:10:13.552Z,89.70
2022-12-17T12:13:07.091Z,89.40
2022-12-17T12:15:58.370Z,88.30
2022-12-17T12:18:48.341Z,88.30
2022-12-17T12:21:44.067Z,88.70
2022-12-17T12:24:36.585Z,87.80
2022-12-17T12:27:26.683Z,85.90
2022-12-17T12:30:15.275Z,85.20
2022-12-17T12:33:09.801Z,85.10
2022-12-17T12:35:56.182Z,85.30
2022-12-17T12:38:46.548Z,85.30
2022-12-17T12:41:36.096Z,85.40
2022-12-17T12:44:40.799Z,86.20
2022-12-17T12:47:28.322Z,86.00
2022-12-17T12:50:17.545Z,85.90
2022-12-17T12:53:08.810Z,85.30
2022-12-17T12:55:56.148Z,85.10
2022-12-17T12:58:44.255Z,85.30
2022-12-17T13:01:32.598Z,85.40
2022-12-17T13:04:19.498Z,85.10
2022-12-17T13:06:50.648Z,85.20
2022-12-17T13:09:39.689Z,85.10
2022-12-17T13:12:29.898Z,85.10
2022-12-17T13:15:09.858Z,85.10
2022-12-17T13:17:39.631Z,85.10
2022-12-17T13:20:28.895Z,85.10
2022-12-17T13:23:16.967Z,85.10
2022-12-17T13:25:45.266Z,85.20
2022-12-17T13:28:31.932Z,85.20
2022-12-17T13:31:03.535Z,85.20
2022-12-17T13:33:36.002Z,85.10
2022-12-17T13:36:07.748Z,85.40
2022-12-17T13:38:42.253Z,85.30
2022-12-17T13:41:12.005Z,85.30
2022-12-17T13:43:42.797Z,85.30
2022-12-17T13:46:19.486Z,85.40
2022-12-17T13:48:53.941Z,85.40
2022-12-17T13:51:22.844Z,85.40
2022-12-17T13:53:56.180Z,85.50
2022-12-17T13:56:29.535Z,85.40
2022-12-17T13:59:00.905Z,85.50
2022-12-17T14:01:31.791Z,85.50
2022-12-17T14:04:08.212Z,85.50
2022-12-17T14:06:38.430Z,85.50
2022-12-17T14:09:10.300Z,85.50
2022-12-17T14:11:56.379Z,85.60
2022-12-17T14:14:28.150Z,85.60
2022-12-17T14:16:59.548Z,85.60
2022-12-17T14:19:28.056Z,85.60
2022-12-17T14:21:59.111Z,85.60
2022-12-17T14:24:29.343Z,86.40
2022-12-17T14:26:58.795Z,85.70
2022-12-17T14:29:27.976Z,85.60
2022-12-17T14:31:57.400Z,85.70
2022-12-17T14:34:25.777Z,85.90
2022-12-17T14:36:55.860Z,85.90
2022-12-17T14:39:35.820Z,86.10
2022-12-17T14:42:29.428Z,86.40
2022-12-17T14:44:59.190Z,86.20
2022-12-17T14:47:28.130Z,86.40
2022-12-17T14:50:02.506Z,86.30
2022-12-17T14:52:41.869Z,86.60
2022-12-17T14:55:31.838Z,86.70
2022-12-17T14:58:24.295Z,87.10
2022-12-17T15:00:54.583Z,87.20
2022-12-17T15:03:25.374Z,86.90
2022-12-17T15:05:56.481Z,86.80
2022-12-17T15:08:33.521Z,86.40
2022-12-17T15:11:03.077Z,86.20
2022-12-17T15:13:31.283Z,86.20
2022-12-17T15:15:59.665Z,86.00
2022-12-17T15:18:28.003Z,86.10
2022-12-17T15:20:56.323Z,86.10
2022-12-17T15:23:24.753Z,85.90
2022-12-17T15:25:54.282Z,86.00
2022-12-17T15:28:24.114Z,86.10
2022-12-17T15:30:52.613Z,87.00
2022-12-17T15:33:20.993Z,86.40
2022-12-17T15:35:53.478Z,86.40
2022-12-17T15:38:21.804Z,86.30
2022-12-17T15:40:55.624Z,86.50
2022-12-17T15:43:24.309Z,86.60
2022-12-17T15:45:54.242Z,86.70
2022-12-17T15:48:25.317Z,87.10
2022-12-17T15:50:53.666Z,87.00
2022-12-17T15:53:24.162Z,87.20
2022-12-17T15:55:52.471Z,87.80
2022-12-17T15:58:23.328Z,87.80
2022-12-17T16:00:52.996Z,88.20
2022-12-17T16:03:21.369Z,88.00
2022-12-17T16:05:49.751Z,88.90
2022-12-17T16:08:21.193Z,88.40
2022-12-17T16:10:49.561Z,88.50
2022-12-17T16:13:17.935Z,88.70
2022-12-17T16:15:46.285Z,89.50
2022-12-17T16:18:17.701Z,90.10
2022-12-17T16:20:45.985Z,90.30
2022-12-17T16:23:17.112Z,90.30
2022-12-17T16:25:45.444Z,90.50
2022-12-17T16:28:13.764Z,90.40
2022-12-17T16:30:42.146Z,90.30
2022-12-17T16:33:10.496Z,90.50
2022-12-17T16:35:40.189Z,90.40
2022-12-17T16:38:08.558Z,90.30
2022-12-17T16:40:39.942Z,90.10
2022-12-17T16:43:08.274Z,90.00
2022-12-17T16:45:36.652Z,90.10
2022-12-17T16:48:05.099Z,89.90
2022-12-17T16:50:33.496Z,89.70
2022-12-17T16:53:03.214Z,89.60
2022-12-17T16:55:31.586Z,90.10
2022-12-17T16:57:59.873Z,89.90
2022-12-17T17:00:28.192Z,89.80
2022-12-17T17:02:56.595Z,90.00
2022-12-17T17:05:24.982Z,90.00
2022-12-17T17:07:53.284Z,90.00
2022-12-17T17:10:25.746Z,90.10
2022-12-17T17:12:54.108Z,90.00
2022-12-17T17:15:25.778Z,90.00
2022-12-17T17:18:02.426Z,90.20
2022-12-17T17:20:32.979Z,90.20
2022-12-17T17:23:01.308Z,90.10
2022-12-17T17:25:44.300Z,90.10
2022-12-17T17:28:18.877Z,90.00
2022-12-17T17:30:47.697Z,90.00
2022-12-17T17:33:16.211Z,90.00
2022-12-17T17:35:44.725Z,90.10
2022-12-17T17:38:13.059Z,90.20
2022-12-17T17:40:42.752Z,90.20
2022-12-17T17:43:12.073Z,90.20
2022-12-17T17:45:42.888Z,90.20
2022-12-17T17:48:11.251Z,90.30
2022-12-17T17:50:39.615Z,90.20
2022-12-17T17:53:08.535Z,90.30
2022-12-17T17:55:45.234Z,90.20
2022-12-17T17:58:17.849Z,90.20
2022-12-17T18:00:46.189Z,90.40
2022-12-17T18:03:14.644Z,90.40
2022-12-17T18:05:43.439Z,90.40
2022-12-17T18:08:11.786Z,90.40
2022-12-17T18:10:40.092Z,90.30
2022-12-17T18:13:25.997Z,90.40
2022-12-17T18:16:02.378Z,90.30
2022-12-17T18:18:30.764Z,90.30
2022-12-17T18:21:04.309Z,90.20
2022-12-17T18:23:32.713Z,90.30
2022-12-17T18:26:08.643Z,90.30
2022-12-17T18:28:37.477Z,90.70
2022-12-17T18:31:11.576Z,90.30
2022-12-17T18:33:41.759Z,90.30
2022-12-17T18:36:14.122Z,90.30
2022-12-17T18:38:42.582Z,90.20
2022-12-17T18:41:29.549Z,90.30
2022-12-17T18:43:59.084Z,90.10
2022-12-17T18:46:28.833Z,90.00
2022-12-17T18:48:57.925Z,89.80
2022-12-17T18:51:26.367Z,89.60
2022-12-17T18:53:57.184Z,89.20
2022-12-17T18:56:52.560Z,89.10
2022-12-17T18:59:14.298Z,89.20
2022-12-17T19:01:44.320Z,89.20
2022-12-17T19:04:13.979Z,89.70
2022-12-17T19:06:42.936Z,88.60
2022-12-17T19:09:17.275Z,88.60
2022-12-17T19:11:45.585Z,88.40
2022-12-17T19:14:13.912Z,88.10
2022-12-17T19:16:43.719Z,88.10
2022-12-17T19:19:12.479Z,88.30
2022-12-17T19:21:40.834Z,88.40
2022-12-17T19:24:10.201Z,88.50
2022-12-17T19:26:38.578Z,88.60
2022-12-17T19:29:08.391Z,88.80
2022-12-17T19:31:36.807Z,88.40
2022-12-17T19:34:07.592Z,88.40
2022-12-17T19:36:36.441Z,88.80
2022-12-17T19:39:06.140Z,88.80
2022-12-17T19:41:34.654Z,88.80
2022-12-17T19:44:04.157Z,89.10
2022-12-17T19:46:32.645Z,89.30
2022-12-17T19:49:01.088Z,89.30
2022-12-17T19:51:31.247Z,89.10
2022-12-17T19:54:03.458Z,89.20
2022-12-17T19:56:36.659Z,89.20
2022-12-17T19:59:07.143Z,88.90
2022-12-17T20:01:36.448Z,89.40
2022-12-17T20:04:05.357Z,89.00
2022-12-17T20:06:35.695Z,89.00
2022-12-17T20:09:04.735Z,88.70
2022-12-17T20:11:37.690Z,88.70
2022-12-17T20:14:07.458Z,88.60
2022-12-17T20:16:40.422Z,88.30
2022-12-17T20:19:13.730Z,87.80
2022-12-17T20:21:43.753Z,88.50
2022-12-17T20:24:12.345Z,88.50
2022-12-17T20:26:42.564Z,88.30
2022-12-17T20:29:14.313Z,88.20
2022-12-17T20:31:48.148Z,88.60
2022-12-17T20:34:19.622Z,88.60
2022-12-17T20:36:55.814Z,87.50
2022-12-17T20:39:27.459Z,88.60
2022-12-17T20:42:05.276Z,88.50
2022-12-17T20:44:33.719Z,88.90
2022-12-17T20:47:02.542Z,89.40
2022-12-17T20:49:31.536Z,89.50
2022-12-17T20:52:02.236Z,89.80
2022-12-17T20:54:31.711Z,90.20
2022-12-17T20:57:01.551Z,90.20
2022-12-17T20:59:32.823Z,90.10
2022-12-17T21:02:01.484Z,89.40
2022-12-17T21:04:30.271Z,89.80
2022-12-17T21:06:59.025Z,90.00
2022-12-17T21:09:28.928Z,89.70
2022-12-17T21:11:57.503Z,89.90
2022-12-17T21:14:35.570Z,90.20
2022-12-17T21:17:05.078Z,89.20
2022-12-17T21:19:33.749Z,89.70
2022-12-17T21:22:02.313Z,89.60
2022-12-17T21:24:34.942Z,88.00
2022-12-17T21:27:03.399Z,89.30
2022-12-17T21:29:31.788Z,88.70
2022-12-17T21:32:00.524Z,89.00
2022-12-17T21:34:29.980Z,88.60
2022-12-17T21:36:58.977Z,88.50
2022-12-17T21:39:27.805Z,88.20
2022-12-17T21:42:14.983Z,88.40
2022-12-17T21:44:43.618Z,88.60
2022-12-17T21:47:15.152Z,89.30
2022-12-17T21:49:43.782Z,89.30
2022-12-17T21:52:12.379Z,89.50
2022-12-17T21:54:40.917Z,89.50
2022-12-17T21:57:12.300Z,89.40
2022-12-17T21:59:46.021Z,89.50
2022-12-17T22:02:17.857Z,89.20
2022-12-17T22:04:46.837Z,89.00
2022-12-17T22:07:17.295Z,89.00
2022-12-17T22:10:08.152Z,89.30
2022-12-17T22:13:00.600Z,88.90
2022-12-17T22:15:32.570Z,89.00
2022-12-17T22:18:07.552Z,89.60
2022-12-17T22:20:35.984Z,87.00
2022-12-17T22:23:07.986Z,88.00
2022-12-17T22:25:39.547Z,86.60
2022-12-17T22:28:09.228Z,87.40
2022-12-17T22:30:57.584Z,86.50
2022-12-17T22:34:06.604Z,86.60
2022-12-17T22:38:03.289Z,87.60
2022-12-17T22:40:43.816Z,87.80
2022-12-17T22:44:35.709Z,87.80
2022-12-17T22:45:10.670Z,87.60
2022-12-17T22:47:40.115Z,87.50
2022-12-17T22:50:08.956Z,87.20
2022-12-17T22:52:40.630Z,87.20
2022-12-17T22:55:09.813Z,87.10
2022-12-17T22:57:38.854Z,86.50
2022-12-17T23:00:15.029Z,87.10
2022-12-17T23:02:46.222Z,86.20
2022-12-17T23:05:14.710Z,86.20
2022-12-17T23:07:53.991Z,85.90
2022-12-17T23:10:22.517Z,85.10
2022-12-17T23:12:54.359Z,85.00
2022-12-17T23:15:26.704Z,85.30
2022-12-17T23:18:08.904Z,85.10
2022-12-17T23:20:37.320Z,85.10
2022-12-17T23:23:05.654Z,85.30
2022-12-17T23:25:34.018Z,84.90
2022-12-17T23:28:06.152Z,84.70
2022-12-17T23:30:37.523Z,84.80
2022-12-17T23:33:05.909Z,84.80
2022-12-17T23:35:34.240Z,84.80
2022-12-17T23:38:02.599Z,84.90
2022-12-17T23:40:33.343Z,84.90
2022-12-17T23:43:01.645Z,84.70
2022-12-17T23:45:29.996Z,84.40
2022-12-17T23:48:03.359Z,84.50
2022-12-17T23:50:33.711Z,84.60
2022-12-17T23:53:01.988Z,84.50
2022-12-17T23:55:30.269Z,84.40
2022-12-17T23:58:01.458Z,84.40
